Time;durP1;ratioP1;P1;durP2;ratioP2;P2;SDS_P1;SDS_P2;PMS_P1;PMS_P2;Temp;Humidity;BMP_temperature;BMP_pressure;BME280_temperature;BME280_humidity;BME280_pressure;Samples;Min_cycle;Max_cycle;Signal;HPM_P1;HPM_P2
2022/04/03 17:22:29;;;;;;;13.30;10.50;;;;;;;3.46;100.00;92803.78;4946022;22;5205545;-84
2022/04/03 17:25:08;;;;;;;12.93;10.23;;;;;;;3.26;100.00;92809.38;5112539;28;20052;-85
2022/04/03 17:30:15;;;;;;;15.00;11.13;;;;;;;3.42;100.00;92807.66;5086978;22;20882;-85
2022/04/03 17:32:54;;;;;;;16.52;12.90;;;;;;;2.95;100.00;92713.91;5071862;28;20055;-85
2022/04/03 17:35:22;;;;;;;18.30;11.95;;;;;;;3.11;100.00;92727.38;5071745;28;20060;-85
2022/04/03 17:37:50;;;;;;;23.63;12.95;;;;;;;4.09;100.00;92846.56;5071981;28;20549;-85
2022/04/03 17:40:18;;;;;;;21.88;12.70;;;;;;;3.63;100.00;92760.41;5072236;28;20044;-85
2022/04/03 17:42:47;;;;;;;20.17;14.00;;;;;;;4.36;100.00;92846.81;5071274;28;20040;-85
2022/04/03 17:45:14;;;;;;;45.72;20.35;;;;;;;4.52;100.00;92855.19;5051180;28;20045;-85
2022/04/03 17:47:41;;;;;;;43.72;21.33;;;;;;;4.31;100.00;92808.44;5052701;28;20057;-84
2022/04/03 17:50:09;;;;;;;22.38;14.18;;;;;;;4.71;100.00;92868.28;5071215;28;20048;-87
2022/04/03 17:52:38;;;;;;;56.00;23.17;;;;;;;4.86;100.00;92878.41;5071149;28;20136;-85
2022/04/03 17:55:10;;;;;;;47.33;19.75;;;;;;;4.40;100.00;92811.66;5071068;28;20084;-84
2022/04/03 17:57:39;;;;;;;33.35;18.65;;;;;;;4.27;100.00;92802.16;5071968;28;20066;-85
2022/04/03 18:00:08;;;;;;;24.30;14.35;;;;;;;3.64;100.00;92785.63;5071786;28;20074;-85
2022/04/03 18:02:35;;;;;;;17.30;13.52;;;;;;;3.64;100.00;92853.41;5071553;28;20048;-84
2022/04/03 18:05:02;;;;;;;16.90;13.00;;;;;;;3.15;100.00;92876.56;5071807;28;20056;-84
2022/04/03 18:07:29;;;;;;;17.83;13.45;;;;;;;3.36;100.00;92902.25;5071767;28;20088;-84
2022/04/03 18:09:57;;;;;;;19.10;14.25;;;;;;;2.56;100.00;92850.09;5086586;28;20434;-84
2022/04/03 18:12:25;;;;;;;21.40;15.73;;;;;;;2.92;100.00;92945.91;5089743;28;20052;-84
2022/04/03 18:14:52;;;;;;;23.38;17.17;;;;;;;2.55;100.00;92884.03;5075577;28;20056;-85
2022/04/03 18:17:19;;;;;;;22.42;16.48;;;;;;;2.66;100.00;92918.34;5062091;28;20069;-85
2022/04/03 18:19:46;;;;;;;21.85;16.10;;;;;;;2.37;100.00;92922.31;5051318;28;20056;-84
2022/04/03 18:22:14;;;;;;;22.73;17.13;;;;;;;1.91;100.00;92879.91;5051407;28;20052;-85
2022/04/03 18:24:42;;;;;;;25.70;18.15;;;;;;;1.73;100.00;92879.16;5051544;28;20056;-85
2022/04/03 18:27:10;;;;;;;22.05;16.23;;;;;;;1.60;100.00;92912.59;5034903;28;20107;-84
2022/04/03 18:29:39;;;;;;;23.90;17.80;;;;;;;1.46;100.00;92898.06;5030903;28;20053;-84
2022/04/03 18:32:08;;;;;;;23.52;16.58;;;;;;;1.24;100.00;92899.53;5030704;28;20148;-84
2022/04/03 18:34:39;;;;;;;22.70;16.13;;;;;;;1.31;100.00;92946.03;5030649;28;20132;-84
2022/04/03 18:37:06;;;;;;;22.52;16.92;;;;;;;1.46;100.00;92979.88;5034467;28;20127;-84
2022/04/03 18:40:08;;;;;;;23.33;17.00;;;;;;;0.47;100.00;92818.78;5040136;28;20051;-85
2022/04/03 18:43:04;;;;;;;21.45;15.00;;;;;;;1.55;100.00;93010.22;5041777;28;20068;-87
2022/04/03 18:45:48;;;;;;;15.40;12.43;;;;;;;0.77;100.00;92934.63;5041458;28;20048;-84
2022/04/03 18:48:27;;;;;;;17.52;12.75;;;;;;;0.58;100.00;92933.16;5030672;28;20111;-84
2022/04/03 18:51:00;;;;;;;18.17;13.25;;;;;;;1.35;100.00;93028.28;5030196;28;20095;-83
2022/04/03 18:53:39;;;;;;;19.92;14.07;;;;;;;1.33;100.00;93017.50;5030449;28;20452;-84
2022/04/03 18:56:07;;;;;;;19.42;14.65;;;;;;;1.40;100.00;93020.19;5030677;28;20049;-83
2022/04/03 18:58:35;;;;;;;24.95;17.98;;;;;;;1.43;100.00;93024.97;5030684;28;20068;-84
2022/04/03 19:01:06;;;;;;;23.65;17.17;;;;;;;1.03;100.00;92967.34;5030635;28;20053;-84
2022/04/03 19:03:33;;;;;;;19.75;14.52;;;;;;;0.62;100.00;92915.03;5030759;28;20087;-83
2022/04/03 19:06:00;;;;;;;23.88;16.48;;;;;;;0.82;100.00;92946.81;5045701;28;20089;-82
2022/04/03 19:08:34;;;;;;;21.45;15.55;;;;;;;1.59;100.00;93036.81;5050476;28;20045;-83
2022/04/03 19:11:05;;;;;;;22.15;15.15;;;;;;;1.26;100.00;92976.06;5050391;28;20048;-82
2022/04/03 19:13:34;;;;;;;20.10;14.73;;;;;;;1.53;100.00;93032.38;5049910;28;20588;-83
2022/04/03 19:16:07;;;;;;;19.40;14.00;;;;;;;1.28;100.00;92995.22;5050221;28;20040;-84
2022/04/03 19:18:35;;;;;;;19.83;13.18;;;;;;;1.54;100.00;93044.91;5050009;28;20049;-83
2022/04/03 19:21:02;;;;;;;23.83;16.85;;;;;;;1.30;100.00;92988.25;5050379;28;20044;-82
2022/04/03 19:23:34;;;;;;;23.52;15.45;;;;;;;1.33;100.00;92987.13;5050308;28;20057;-83
2022/04/03 19:26:01;;;;;;;17.73;13.35;;;;;;;1.13;100.00;93007.69;5043285;28;20098;-82
2022/04/03 19:28:29;;;;;;;24.77;16.67;;;;;;;1.26;100.00;93034.28;5030495;28;20053;-83
2022/04/03 19:30:56;;;;;;;23.73;17.15;;;;;;;1.17;100.00;93000.59;5030227;28;20128;-83
2022/04/03 19:33:25;;;;;;;18.02;13.18;;;;;;;1.08;100.00;93026.81;5030117;28;20397;-83
2022/04/03 19:35:52;;;;;;;25.48;17.42;;;;;;;0.95;100.00;92976.66;5030117;28;20053;-83
2022/04/03 19:38:22;;;;;;;24.05;18.20;;;;;;;0.70;100.00;92962.28;5030173;28;20112;-83
2022/04/03 19:40:49;;;;;;;18.90;14.25;;;;;;;0.96;100.00;92996.75;5029872;28;20045;-83
2022/04/03 19:43:17;;;;;;;18.92;13.30;;;;;;;1.02;100.00;93013.84;5029960;28;20123;-82
2022/04/03 19:45:46;;;;;;;22.38;15.43;;;;;;;1.14;100.00;93016.88;5030104;28;20423;-82
2022/04/03 19:48:13;;;;;;;21.45;14.50;;;;;;;1.34;100.00;93057.03;5030245;28;20076;-82
2022/04/03 19:50:43;;;;;;;21.85;15.88;;;;;;;1.66;100.00;93087.63;5029758;28;20049;-82
2022/04/03 19:53:10;;;;;;;23.65;15.10;;;;;;;1.26;100.00;93024.94;5036031;28;20060;-82
2022/04/03 19:55:37;;;;;;;23.23;16.50;;;;;;;1.76;100.00;93090.00;5049445;28;20055;-82
2022/04/03 19:58:05;;;;;;;22.33;14.93;;;;;;;1.78;100.00;93083.00;5050157;28;20105;-82
2022/04/03 20:00:32;;;;;;;22.83;15.35;;;;;;;0.84;100.00;92973.53;5049871;28;20053;-82
2022/04/03 20:02:59;;;;;;;18.50;14.38;;;;;;;1.22;100.00;93027.94;5050074;28;20059;-82
2022/04/03 20:05:26;;;;;;;20.73;14.57;;;;;;;1.56;100.00;93092.81;5049798;28;20057;-82
2022/04/03 20:07:54;;;;;;;20.20;16.00;;;;;;;1.64;100.00;93109.75;5049763;28;20763;-82
2022/04/03 20:10:22;;;;;;;20.70;14.10;;;;;;;1.57;100.00;93107.09;5049781;28;20045;-82
2022/04/03 20:12:49;;;;;;;18.83;13.82;;;;;;;0.75;100.00;92997.19;5050498;28;20087;-82
2022/04/03 20:15:17;;;;;;;22.30;15.48;;;;;;;1.45;100.00;93111.66;5049859;28;20505;-82
2022/04/03 20:17:44;;;;;;;18.90;12.93;;;;;;;0.84;100.00;93015.72;5049538;28;20495;-82
2022/04/03 20:20:12;;;;;;;17.98;13.25;;;;;;;0.83;100.00;93044.47;5049896;28;20052;-82
2022/04/03 20:22:40;;;;;;;18.73;14.60;;;;;;;1.33;100.00;93114.47;5049541;28;20060;-82
2022/04/03 20:25:10;;;;;;;16.63;13.02;;;;;;;1.29;100.00;93122.53;5049832;28;20056;-82
2022/04/03 20:27:37;;;;;;;21.67;14.57;;;;;;;1.08;100.00;93106.03;5053640;28;20134;-82
2022/04/03 20:30:06;;;;;;;18.67;13.77;;;;;;;0.60;100.00;93037.44;5053527;28;20057;-82
2022/04/03 20:32:33;;;;;;;20.80;14.80;;;;;;;0.40;100.00;93025.03;5053620;28;20156;-82
2022/04/03 20:35:04;;;;;;;20.25;15.07;;;;;;;0.72;100.00;93063.22;5050802;28;20499;-83
2022/04/03 20:37:32;;;;;;;19.88;14.57;;;;;;;1.05;100.00;93064.13;5050696;28;20077;-82
2022/04/03 20:39:59;;;;;;;16.73;12.73;;;;;;;1.33;100.00;93081.56;5051671;28;20416;-82
2022/04/03 20:42:27;;;;;;;19.73;14.05;;;;;;;1.04;100.00;93062.56;5053077;28;20582;-82
2022/04/03 20:44:55;;;;;;;20.20;15.10;;;;;;;1.91;100.00;93176.25;5053777;28;20779;-82
2022/04/03 20:47:21;;;;;;;21.88;15.65;;;;;;;1.66;100.00;93177.03;5052815;28;20081;-81
2022/04/03 20:49:48;;;;;;;20.25;14.85;;;;;;;1.32;100.00;93152.59;5053023;28;20385;-81
2022/04/03 20:52:16;;;;;;;20.45;15.10;;;;;;;0.62;100.00;93073.47;5052802;28;20793;-82
2022/04/03 20:54:42;;;;;;;20.65;13.63;;;;;;;0.28;100.00;93062.44;5052879;28;20060;-82
2022/04/03 20:57:09;;;;;;;20.52;13.95;;;;;;;0.60;100.00;93143.63;5052797;28;20064;-81
2022/04/03 20:59:40;;;;;;;21.58;15.32;;;;;;;0.77;100.00;93164.69;5052752;28;20099;-78
2022/04/03 21:02:08;;;;;;;21.75;17.00;;;;;;;0.99;100.00;93177.75;5052770;28;20052;-78
2022/04/03 21:04:35;;;;;;;22.52;16.15;;;;;;;0.89;100.00;93140.72;5052129;28;20098;-80
2022/04/03 21:07:01;;;;;;;19.73;15.27;;;;;;;1.08;100.00;93171.81;5052290;28;20084;-80
2022/04/03 21:09:29;;;;;;;21.63;15.43;;;;;;;0.89;100.00;93129.84;5052153;28;20056;-80
2022/04/03 21:11:57;;;;;;;21.88;14.75;;;;;;;1.46;100.00;93189.16;5051777;28;20140;-80
2022/04/03 21:14:24;;;;;;;18.67;14.13;;;;;;;0.83;100.00;93136.28;5052119;28;20049;-80
2022/04/03 21:16:52;;;;;;;21.15;15.48;;;;;;;1.08;100.00;93179.41;5051874;28;20407;-81
2022/04/03 21:19:19;;;;;;;20.20;15.30;;;;;;;1.20;100.00;93197.59;5051745;28;20048;-81
2022/04/03 21:21:46;;;;;;;20.63;15.13;;;;;;;0.67;100.00;93142.06;5052015;28;20407;-80
2022/04/03 21:24:13;;;;;;;21.30;15.70;;;;;;;1.39;100.00;93206.69;5052057;28;20051;-81
2022/04/03 21:26:40;;;;;;;20.73;15.65;;;;;;;1.58;100.00;93207.41;5051827;28;20044;-81
2022/04/03 21:29:06;;;;;;;19.00;13.95;;;;;;;1.72;100.00;93200.94;5051644;28;20053;-81
2022/04/03 21:31:33;;;;;;;19.00;14.65;;;;;;;1.96;100.00;93200.19;5051731;28;20098;-81
2022/04/03 21:34:02;;;;;;;17.50;13.45;;;;;;;1.58;100.00;93200.56;5052107;28;20084;-81
2022/04/03 21:36:29;;;;;;;18.95;14.07;;;;;;;1.12;100.00;93134.34;5052161;28;20115;-81
2022/04/03 21:38:57;;;;;;;19.08;14.88;;;;;;;1.18;100.00;93138.78;5051868;28;20083;-81
2022/04/03 21:41:24;;;;;;;18.73;13.55;;;;;;;1.31;100.00;93209.97;5052190;28;20059;-81
2022/04/03 21:43:50;;;;;;;20.30;14.55;;;;;;;0.49;100.00;93121.91;5052312;28;20056;-81
2022/04/03 21:46:17;;;;;;;19.33;14.18;;;;;;;0.47;100.00;93118.75;5051914;28;20514;-81
2022/04/03 21:48:44;;;;;;;19.38;14.48;;;;;;;1.15;100.00;93208.19;5051988;28;20055;-81
2022/04/03 21:51:13;;;;;;;20.20;14.95;;;;;;;0.96;100.00;93199.09;5051085;28;20061;-81
2022/04/03 21:53:39;;;;;;;18.58;14.63;;;;;;;0.92;100.00;93223.09;5052112;28;20403;-81
2022/04/03 21:56:07;;;;;;;16.45;12.80;;;;;;;0.99;100.00;93223.28;5051883;28;20132;-81
2022/04/03 21:58:34;;;;;;;17.10;13.13;;;;;;;0.75;100.00;93217.16;5052130;28;20045;-82
2022/04/03 22:01:18;;;;;;;15.13;12.00;;;;;;;0.50;100.00;93157.16;5052197;28;20103;-81
2022/04/03 22:03:46;;;;;;;16.52;11.23;;;;;;;0.95;100.00;93242.25;5051910;28;20447;-82
2022/04/03 22:06:14;;;;;;;15.05;10.85;;;;;;;0.52;100.00;93182.28;5051944;28;20060;-82
2022/04/03 22:08:42;;;;;;;15.00;10.48;;;;;;;0.45;100.00;93187.13;5051650;28;20053;-81
2022/04/03 22:11:10;;;;;;;14.38;9.98;;;;;;;1.09;100.00;93256.06;5051860;28;20080;-81
2022/04/03 22:13:37;;;;;;;12.82;10.32;;;;;;;0.73;100.00;93198.81;5051259;28;20562;-80
2022/04/03 22:16:05;;;;;;;15.10;10.55;;;;;;;0.87;100.00;93258.16;5050999;28;20053;-79
2022/04/03 22:18:32;;;;;;;14.20;11.57;;;;;;;0.50;100.00;93212.75;5051632;28;20045;-79
2022/04/03 22:20:59;;;;;;;16.20;12.05;;;;;;;0.63;100.00;93230.06;5051305;28;20576;-80
2022/04/03 22:23:28;;;;;;;13.48;10.70;;;;;;;-0.04;100.00;93139.59;5050758;28;20045;-80
2022/04/03 22:25:54;;;;;;;15.00;11.02;;;;;;;0.95;100.00;93259.94;5044661;28;20837;-80
2022/04/03 22:28:22;;;;;;;18.52;11.75;;;;;;;0.75;100.00;93227.28;5030815;28;20053;-80
2022/04/03 22:30:49;;;;;;;13.48;11.25;;;;;;;1.22;100.00;93253.94;5031277;28;20053;-80
2022/04/03 22:33:17;;;;;;;13.10;10.07;;;;;;;0.95;100.00;93215.22;5030878;28;20053;-80
2022/04/03 22:35:44;;;;;;;12.75;9.73;;;;;;;1.23;100.00;93259.78;5030824;28;20095;-80
2022/04/03 22:38:13;;;;;;;13.68;10.20;;;;;;;1.08;100.00;93267.13;5030563;28;20041;-80
2022/04/03 22:40:42;;;;;;;12.43;10.13;;;;;;;0.62;100.00;93215.03;5030936;28;20139;-81
2022/04/03 22:43:09;;;;;;;17.35;12.68;;;;;;;0.89;100.00;93243.63;5031331;28;20053;-82
2022/04/03 22:45:36;;;;;;;14.57;11.57;;;;;;;1.19;100.00;93260.09;5030369;28;20554;-81
2022/04/03 22:48:03;;;;;;;14.77;11.10;;;;;;;0.72;100.00;93197.22;5030617;28;20107;-81
2022/04/03 22:50:34;;;;;;;15.25;11.23;;;;;;;1.22;100.00;93255.66;5029865;28;20049;-80
2022/04/03 22:53:02;;;;;;;16.65;11.65;;;;;;;1.10;100.00;93238.22;5030209;28;20093;-81
2022/04/03 22:55:29;;;;;;;14.07;11.07;;;;;;;1.16;100.00;93211.53;5030306;28;20447;-81
2022/04/03 22:57:57;;;;;;;15.68;12.20;;;;;;;1.06;100.00;93202.31;5030191;28;20045;-81
2022/04/03 23:00:24;;;;;;;13.10;10.40;;;;;;;1.55;100.00;93250.72;5030407;28;20041;-81
2022/04/03 23:02:51;;;;;;;13.80;11.05;;;;;;;1.60;100.00;93246.00;5030156;28;20053;-82
2022/04/03 23:05:18;;;;;;;15.15;10.70;;;;;;;1.73;100.00;93256.47;5030216;28;20133;-81
2022/04/03 23:07:49;;;;;;;16.27;10.85;;;;;;;1.81;100.00;93285.31;5032282;28;20542;-81
2022/04/03 23:10:16;;;;;;;13.13;11.05;;;;;;;1.60;100.00;93254.41;5038119;28;20057;-81
2022/04/03 23:12:43;;;;;;;13.95;11.80;;;;;;;2.07;100.00;93280.16;5031274;28;20100;-82
2022/04/03 23:15:12;;;;;;;13.95;11.30;;;;;;;2.02;100.00;93276.50;5030384;28;20049;-82
2022/04/03 23:17:39;;;;;;;13.57;10.95;;;;;;;2.00;100.00;93259.72;5030332;28;20412;-82
2022/04/03 23:20:07;;;;;;;14.27;10.90;;;;;;;2.36;100.00;93286.53;5030227;28;20057;-82
2022/04/03 23:22:34;;;;;;;16.10;12.25;;;;;;;2.18;100.00;93247.88;5030662;28;20148;-82
2022/04/03 23:25:01;;;;;;;14.63;11.25;;;;;;;2.41;100.00;93268.34;5030396;28;20501;-82
2022/04/03 23:27:29;;;;;;;17.85;12.25;;;;;;;2.07;100.00;93209.22;5049311;28;20052;-82
2022/04/03 23:29:56;;;;;;;15.15;11.35;;;;;;;2.71;100.00;93301.59;5049813;28;20064;-82
2022/04/03 23:32:25;;;;;;;14.20;11.23;;;;;;;2.80;100.00;93298.13;5050529;28;20633;-82
2022/04/03 23:34:52;;;;;;;15.52;11.48;;;;;;;2.82;100.00;93297.94;5050486;28;20159;-82
2022/04/03 23:37:19;;;;;;;12.80;10.25;;;;;;;2.69;99.27;93274.81;5050005;28;20078;-82
2022/04/03 23:39:46;;;;;;;14.10;10.93;;;;;;;2.54;98.00;93285.59;5049983;28;20061;-83
2022/04/03 23:42:13;;;;;;;14.27;10.90;;;;;;;2.10;99.03;93241.84;5050039;28;20049;-82
2022/04/03 23:44:40;;;;;;;12.93;8.48;;;;;;;2.52;96.69;93312.84;5049704;28;20052;-83
2022/04/03 23:47:07;;;;;;;10.88;9.07;;;;;;;2.38;95.18;93306.66;5036020;28;20049;-81
2022/04/03 23:49:36;;;;;;;12.65;9.10;;;;;;;1.76;98.35;93212.31;5030183;28;20148;-81
2022/04/03 23:52:03;;;;;;;14.05;10.57;;;;;;;2.47;99.25;93302.38;5029893;28;20507;-81
2022/04/03 23:54:30;;;;;;;13.40;8.95;;;;;;;2.41;97.99;93301.28;5030544;28;20378;-81
2022/04/03 23:56:58;;;;;;;10.98;7.40;;;;;;;1.99;96.27;93291.06;5029675;28;20057;-81
2022/04/03 23:59:25;;;;;;;12.95;9.55;;;;;;;1.89;99.70;93265.06;5029693;28;20054;-81
